Latest Weather Observations for Fort Denison

IDN60801

Issued at 3:12 am EDT Wednesday 19 February 2020 (issued every 10 minutes, with the page automatically refreshed every 10 minutes)

About weather observations | Map of weather stations | Latest weather observations for NSW | Other Formats
Station Details ID: 066022 Name: FORT DENISON Lat: -33.86 Lon: 151.23 Height: 5.0 m
Data from the previous 72 hours. | See also: Recent months for locations in New South Wales
Date/Time
EDT
Temp
°C
App
Temp
°C
Dew
Point
°C
Rel
Hum
%
Delta-T
°C
Wind Press
QNH
hPa
Press
MSL
hPa
Rain since
9am
mm
Dir  Spd
km/h
Gust
km/h
Spd
kts
Gust
kts
19/03:00am - - - - - W 15 19 8 10 - - -
19/02:30am - - - - - NNW 7 13 4 7 - - -
19/02:00am - - - - - NNW 4 11 2 6 - - -
19/01:30am - - - - - NNE 6 11 3 6 - - -
19/01:00am - - - - - WNW 19 24 10 13 - - -
19/12:30am - - - - - NW 17 22 9 12 - - -
19/12:00am - - - - - WNW 4 9 2 5 - - -
 
Date/Time
EDT
Temp
°C
App
Temp
°C
Dew
Point
°C
Rel
Hum
%
Delta-T
°C
Wind Press
QNH
hPa
Press
MSL
hPa
Rain since
9am
mm
Dir  Spd
km/h
Gust
km/h
Spd
kts
Gust
kts
18/11:30pm - - - - - E 7 15 4 8 - - -
18/11:07pm - - - - - WSW 50 82 27 44 - - -
18/11:00pm - - - - - WNW 57 93 31 50 - - -
18/10:51pm - - - - - WSW 17 104 9 56 - - -
18/10:50pm - - - - - WSW 11 104 6 56 - - -
18/10:30pm - - - - - NNE 11 20 6 11 - - -
18/10:00pm - - - - - NNE 15 22 8 12 - - -
18/09:30pm - - - - - NNE 22 30 12 16 - - -
18/09:00pm - - - - - NNE 22 33 12 18 - - -
18/08:30pm - - - - - NNE 28 39 15 21 - - -
18/08:00pm - - - - - NNE 28 46 15 25 - - -
18/07:56pm - - - - - NNE 28 46 15 25 - - -
18/07:30pm - - - - - NNE 33 46 18 25 - - -
18/07:00pm - - - - - NNE 26 39 14 21 - - -
18/06:30pm - - - - - NNE 22 35 12 19 - - -
18/06:00pm - - - - - NE 22 39 12 21 - - -
18/05:30pm - - - - - NE 20 28 11 15 - - -
18/05:00pm - - - - - NNE 22 32 12 17 - - -
18/04:30pm - - - - - NE 17 30 9 16 - - -
18/04:00pm - - - - - NNE 20 30 11 16 - - -
18/03:30pm - - - - - NE 22 32 12 17 - - -
18/03:00pm - - - - - NE 22 32 12 17 - - -
18/02:30pm - - - - - NE 20 32 11 17 - - -
18/02:00pm - - - - - ENE 19 24 10 13 - - -
18/01:30pm - - - - - E 17 20 9 11 - - -
18/01:00pm - - - - - E 22 26 12 14 - - -
18/12:30pm - - - - - E 17 20 9 11 - - -
18/12:00pm - - - - - E 17 19 9 10 - - -
18/11:30am - - - - - E 9 13 5 7 - - -
18/11:00am - - - - - ESE 6 7 3 4 - - -
18/10:30am - - - - - W 6 9 3 5 - - -
18/10:00am - - - - - W 9 15 5 8 - - -
18/09:30am - - - - - WNW 13 19 7 10 - - -
18/09:00am - - - - - NNW 6 7 3 4 - - -
18/08:30am - - - - - WNW 11 17 6 9 - - -
18/08:00am - - - - - WNW 11 15 6 8 - - -
18/07:30am - - - - - WNW 4 6 2 3 - - -
18/07:00am - - - - - WNW 9 11 5 6 - - -
18/06:30am - - - - - WNW 7 7 4 4 - - -
18/06:00am - - - - - NW 6 6 3 3 - - -
18/05:30am - - - - - NW 2 4 1 2 - - -
18/05:00am - - - - - WNW 4 4 2 2 - - -
18/04:30am - - - - - CALM 0 2 0 1 - - -
18/04:00am - - - - - NW 2 2 1 1 - - -
18/03:30am - - - - - NW 2 2 1 1 - - -
18/03:00am - - - - - WNW 2 4 1 2 - - -
18/02:30am - - - - - NNE 2 4 1 2 - - -
18/02:00am - - - - - N 2 4 1 2 - - -
18/01:30am - - - - - NNE 4 6 2 3 - - -
18/01:00am - - - - - NNW 2 4 1 2 - - -
18/12:30am - - - - - NNE 2 4 1 2 - - -
18/12:00am - - - - - N 2 4 1 2 - - -
 
Date/Time
EDT
Temp
°C
App
Temp
°C
Dew
Point
°C
Rel
Hum
%
Delta-T
°C
Wind Press
QNH
hPa
Press
MSL
hPa
Rain since
9am
mm
Dir  Spd
km/h
Gust
km/h
Spd
kts
Gust
kts
17/11:30pm - - - - - N 2 2 1 1 - - -
17/11:00pm - - - - - NNE 4 6 2 3 - - -
17/10:30pm - - - - - E 4 6 2 3 - - -
17/10:00pm - - - - - NE 6 7 3 4 - - -
17/09:30pm - - - - - NE 6 7 3 4 - - -
17/09:00pm - - - - - E 6 7 3 4 - - -
17/08:30pm - - - - - ESE 11 13 6 7 - - -
17/08:00pm - - - - - ESE 6 7 3 4 - - -
17/07:30pm - - - - - ESE 7 9 4 5 - - -
17/07:00pm - - - - - E 9 11 5 6 - - -
17/06:30pm - - - - - E 9 11 5 6 - - -
17/06:00pm - - - - - E 7 11 4 6 - - -
17/05:30pm - - - - - E 11 13 6 7 - - -
17/05:00pm - - - - - ESE 11 13 6 7 - - -
17/04:30pm - - - - - E 11 13 6 7 - - -
17/04:00pm - - - - - E 13 15 7 8 - - -
17/03:30pm - - - - - E 11 13 6 7 - - -
17/03:00pm - - - - - ENE 11 13 6 7 - - -
17/02:30pm - - - - - ESE 6 6 3 3 - - -
17/02:00pm - - - - - E 2 4 1 2 - - -
17/01:30pm - - - - - W 2 2 1 1 - - -
17/01:00pm - - - - - SE 6 11 3 6 - - -
17/12:30pm - - - - - ESE 7 9 4 5 - - -
17/12:00pm - - - - - E 9 11 5 6 - - -
17/11:30am - - - - - E 7 11 4 6 - - -
17/11:00am - - - - - E 7 9 4 5 - - -
17/10:30am - - - - - NE 4 6 2 3 - - -
17/10:00am - - - - - NNE 2 4 1 2 - - -
17/09:30am - - - - - WNW 2 4 1 2 - - -
17/09:00am - - - - - WNW 7 9 4 5 - - -
17/08:30am - - - - - W 9 13 5 7 - - -
17/08:00am - - - - - WNW 9 13 5 7 - - -
17/07:30am - - - - - W 13 15 7 8 - - -
17/07:00am - - - - - W 9 11 5 6 - - -
17/06:30am - - - - - WNW 9 11 5 6 - - -
17/06:00am - - - - - W 9 13 5 7 - - -
17/05:30am - - - - - WNW 11 15 6 8 - - -
17/05:00am - - - - - W 9 11 5 6 - - -
17/04:30am - - - - - WNW 7 11 4 6 - - -
17/04:00am - - - - - WSW 2 6 1 3 - - -
17/03:30am - - - - - W 9 11 5 6 - - -
17/03:00am - - - - - WNW 7 9 4 5 - - -
17/02:30am - - - - - ESE 4 7 2 4 - - -
17/02:00am - - - - - WNW 9 11 5 6 - - -
17/01:30am - - - - - W 6 9 3 5 - - -
17/01:00am - - - - - SE 2 7 1 4 - - -
17/12:30am - - - - - SSW 4 6 2 3 - - -
17/12:00am - - - - - SSW 2 4 1 2 - - -
 
Date/Time
EDT
Temp
°C
App
Temp
°C
Dew
Point
°C
Rel
Hum
%
Delta-T
°C
Wind Press
QNH
hPa
Press
MSL
hPa
Rain since
9am
mm
Dir  Spd
km/h
Gust
km/h
Spd
kts
Gust
kts
16/11:30pm - - - - - SSW 4 7 2 4 - - -
16/11:00pm - - - - - SW 4 6 2 3 - - -
16/10:30pm - - - - - S 9 13 5 7 - - -
16/10:00pm - - - - - S 7 13 4 7 - - -
16/09:30pm - - - - - SSE 7 9 4 5 - - -
16/09:00pm - - - - - SSE 7 11 4 6 - - -
16/08:30pm - - - - - S 11 15 6 8 - - -
16/08:00pm - - - - - SSE 13 19 7 10 - - -
16/07:30pm - - - - - SSE 13 22 7 12 - - -
16/07:00pm - - - - - SE 17 22 9 12 - - -
16/06:30pm - - - - - SE 15 22 8 12 - - -
16/06:00pm - - - - - SE 15 20 8 11 - - -
16/05:30pm - - - - - SE 15 22 8 12 - - -
16/05:00pm - - - - - SE 19 24 10 13 - - -
16/04:30pm - - - - - SSE 22 28 12 15 - - -
16/04:00pm - - - - - SSE 19 24 10 13 - - -
16/03:30pm - - - - - SE 17 26 9 14 - - -
16/03:00pm - - - - - SE 20 28 11 15 - - -
16/02:30pm - - - - - SE 20 28 11 15 - - -
16/02:00pm - - - - - SSE 19 26 10 14 - - -
16/01:30pm - - - - - SSE 15 26 8 14 - - -
16/01:00pm - - - - - SSE 19 24 10 13 - - -
16/12:30pm - - - - - SSE 15 22 8 12 - - -
16/12:00pm - - - - - SSE 15 22 8 12 - - -
16/11:30am - - - - - SE 9 17 5 9 - - -
16/11:00am - - - - - S 11 17 6 9 - - -
16/10:30am - - - - - SSE 11 17 6 9 - - -
16/10:00am - - - - - S 9 15 5 8 - - -
16/09:30am - - - - - S 9 17 5 9 - - -
16/09:00am - - - - - SSW 9 17 5 9 - - -
16/08:30am - - - - - SSW 11 17 6 9 - - -
16/08:00am - - - - - SSW 13 19 7 10 - - -
16/07:30am - - - - - SW 11 17 6 9 - - -
16/07:00am - - - - - SSW 9 15 5 8 - - -
16/06:30am - - - - - S 13 20 7 11 - - -
16/06:00am - - - - - SSW 13 19 7 10 - - -
16/05:30am - - - - - SSW 15 22 8 12 - - -
16/05:00am - - - - - SSW 13 24 7 13 - - -
16/04:30am - - - - - SSW 13 22 7 12 - - -
16/04:00am - - - - - WSW 9 11 5 6 - - -
16/03:30am - - - - - WNW 9 11 5 6 - - -

Other formats

Comma delimited format used in spreadsheet applications
http://www.bom.gov.au/fwo/IDN60801/IDN60801.94769.axf

JavaScript Object Notation format (JSON) in row-major order
http://www.bom.gov.au/fwo/IDN60801/IDN60801.94769.json

Data quality

Most of these data are generated automatically and are frequently updated. Quality checks on data are not normally performed. It is possible for incorrect values to appear. Refer to information at About Latest Weather Observations and please check the disclaimer before using these data.